Time;durP1;ratioP1;P1;durP2;ratioP2;P2;SDS_P1;SDS_P2;PMS_P1;PMS_P2;Temp;Humidity;BMP_temperature;BMP_pressure;BME280_temperature;BME280_humidity;BME280_pressure;Samples;Min_cycle;Max_cycle;Signal;HPM_P1;HPM_P2
2022/08/26 00:01:09;;;;;;;2.30;2.20;;;;;;;20.67;74.92;99873.72;4916586;29;20959;-50
2022/08/26 00:03:35;;;;;;;5.80;2.70;;;;;;;20.63;75.54;99873.09;4916312;29;20459;-50
2022/08/26 00:06:02;;;;;;;5.03;2.27;;;;;;;20.74;75.04;99864.19;4916299;29;21018;-50
2022/08/26 00:08:29;;;;;;;6.93;1.93;;;;;;;20.93;74.40;99867.16;4917068;29;20453;-50
2022/08/26 00:10:55;;;;;;;4.53;2.70;;;;;;;21.07;74.09;99862.50;4917358;29;20457;-50
2022/08/26 00:13:25;;;;;;;5.70;2.37;;;;;;;20.90;74.84;99859.28;4917718;29;20528;-49
2022/08/26 00:15:51;;;;;;;2.53;2.43;;;;;;;20.88;75.20;99863.97;4916382;29;20464;-50
2022/08/26 00:18:18;;;;;;;3.10;2.90;;;;;;;20.90;75.02;99861.13;4916010;29;20453;-49
2022/08/26 00:20:48;;;;;;;28.27;3.63;;;;;;;20.80;75.52;99862.81;4916546;29;20453;-50
2022/08/26 00:23:14;;;;;;;6.83;3.20;;;;;;;20.70;75.15;99871.66;4916236;29;20460;-51
2022/08/26 00:25:41;;;;;;;5.07;2.10;;;;;;;20.63;75.50;99869.53;4916325;29;20457;-50
2022/08/26 00:28:08;;;;;;;4.87;2.07;;;;;;;20.63;75.47;99872.25;4916014;29;20464;-50
2022/08/26 00:30:36;;;;;;;3.17;2.97;;;;;;;20.52;76.02;99873.06;4915965;29;20461;-51
2022/08/26 00:33:04;;;;;;;3.50;3.30;;;;;;;20.45;75.97;99879.91;4916126;29;20463;-49
2022/08/26 00:35:33;;;;;;;2.80;2.60;;;;;;;20.38;76.59;99881.31;4915920;29;20857;-49
2022/08/26 00:38:01;;;;;;;2.80;2.60;;;;;;;20.31;76.76;99880.94;4916259;29;20477;-50
2022/08/26 00:40:33;;;;;;;4.50;1.73;;;;;;;20.36;76.64;99884.13;4915863;29;20886;-49
2022/08/26 00:43:01;;;;;;;2.90;2.70;;;;;;;20.39;77.16;99870.41;4916136;29;20453;-50
2022/08/26 00:45:40;;;;;;;2.37;2.20;;;;;;;20.26;77.31;99872.28;4916125;29;20903;-50
2022/08/26 00:48:09;;;;;;;3.00;2.80;;;;;;;20.34;76.99;99883.38;4916265;29;20452;-50
2022/08/26 00:50:40;;;;;;;3.40;3.10;;;;;;;20.33;76.80;99881.66;4916035;29;20461;-50
2022/08/26 00:53:20;;;;;;;1.40;1.30;;;;;;;20.39;76.68;99885.72;4916034;29;20964;-50
2022/08/26 00:55:56;;;;;;;2.17;2.07;;;;;;;20.31;77.06;99877.38;4903844;29;20461;-50
2022/08/26 00:58:25;;;;;;;3.00;2.83;;;;;;;20.20;77.24;99880.00;4916098;29;20456;-50
2022/08/26 01:00:52;;;;;;;2.60;2.50;;;;;;;20.10;77.49;99874.44;4916080;29;20457;-50
2022/08/26 01:03:24;;;;;;;2.00;1.90;;;;;;;19.98;78.14;99872.63;4915986;29;20463;-50
2022/08/26 01:05:55;;;;;;;3.47;1.77;;;;;;;19.94;78.90;99868.47;4915822;29;20449;-50
2022/08/26 01:08:23;;;;;;;2.60;2.40;;;;;;;20.07;78.46;99869.28;4915605;29;20946;-50
2022/08/26 01:10:52;;;;;;;1.93;1.77;;;;;;;20.05;78.14;99869.38;4916093;29;20479;-50
2022/08/26 01:13:21;;;;;;;2.23;2.03;;;;;;;20.28;77.42;99875.75;4915947;29;20485;-50
2022/08/26 01:15:54;;;;;;;8.03;2.97;;;;;;;20.44;76.90;99874.63;4915966;29;20457;-50
2022/08/26 01:18:22;;;;;;;4.07;2.03;;;;;;;20.40;76.68;99880.22;4915699;29;20464;-50
2022/08/26 01:21:01;;;;;;;5.60;2.30;;;;;;;20.28;78.06;99878.44;4915641;29;20461;-50
2022/08/26 01:23:32;;;;;;;3.17;2.97;;;;;;;20.22;78.29;99876.22;4915994;29;20459;-50
2022/08/26 01:26:04;;;;;;;1.90;1.80;;;;;;;20.08;78.34;99877.25;4915824;29;20449;-49
2022/08/26 01:28:32;;;;;;;2.97;2.80;;;;;;;20.07;78.58;99880.91;4915801;29;20481;-49
2022/08/26 01:31:02;;;;;;;3.47;3.17;;;;;;;19.91;78.54;99880.34;4916043;29;20473;-49
2022/08/26 01:33:41;;;;;;;2.30;2.20;;;;;;;19.91;78.38;99871.38;4915581;29;20876;-50
2022/08/26 01:36:09;;;;;;;2.17;2.07;;;;;;;19.94;78.50;99877.41;4917941;29;20951;-49
2022/08/26 01:38:36;;;;;;;10.27;2.47;;;;;;;20.07;78.27;99874.66;4919158;29;20483;-49
2022/08/26 01:41:03;;;;;;;17.37;2.70;;;;;;;19.92;78.68;99883.91;4918985;29;20823;-49
2022/08/26 01:43:44;;;;;;;3.13;2.83;;;;;;;19.85;78.81;99882.63;4918842;29;20489;-50
2022/08/26 01:46:13;;;;;;;5.33;2.53;;;;;;;19.78;80.06;99880.38;4919219;29;20458;-49
2022/08/26 01:48:42;;;;;;;3.03;2.80;;;;;;;19.59;80.57;99873.72;4918952;29;20473;-49
2022/08/26 01:51:12;;;;;;;3.67;2.50;;;;;;;19.56;80.19;99871.25;4919077;29;20543;-49
2022/08/26 01:53:40;;;;;;;3.00;2.10;;;;;;;19.40;80.17;99869.63;4918765;29;20453;-50
2022/08/26 01:56:11;;;;;;;5.93;4.17;;;;;;;19.49;80.36;99870.81;4918745;29;20460;-49
2022/08/26 01:58:51;;;;;;;44.10;3.77;;;;;;;19.66;79.71;99877.72;4918881;29;20492;-50
2022/08/26 02:01:18;;;;;;;2.53;2.33;;;;;;;19.71;79.35;99880.91;4919057;29;20449;-50
2022/08/26 02:04:16;;;;;;;3.07;2.50;;;;;;;19.60;80.17;99878.13;4918701;29;20516;-49
2022/08/26 02:06:43;;;;;;;1.93;1.83;;;;;;;19.78;78.93;99888.47;4918466;29;20556;-50
2022/08/26 02:09:11;;;;;;;3.87;3.67;;;;;;;20.04;78.45;99888.41;4918750;29;20499;-49
2022/08/26 02:11:40;;;;;;;4.20;2.63;;;;;;;19.71;80.14;99878.22;4921406;29;20445;-49
2022/08/26 02:14:23;;;;;;;3.73;2.90;;;;;;;19.64;80.31;99885.91;4918630;29;20497;-49
2022/08/26 02:16:54;;;;;;;2.10;1.80;;;;;;;19.69;79.99;99888.28;4918469;29;20453;-49
2022/08/26 02:19:28;;;;;;;1.80;1.70;;;;;;;19.61;80.01;99891.53;4918728;29;21089;-49
2022/08/26 02:21:58;;;;;;;8.87;2.53;;;;;;;19.60;80.09;99891.63;4918985;29;20449;-50
2022/08/26 02:24:28;;;;;;;2.73;2.53;;;;;;;19.34;81.45;99891.66;4918398;29;20449;-49
2022/08/26 02:26:56;;;;;;;2.53;2.33;;;;;;;19.23;81.88;99889.72;4918243;29;20457;-49
2022/08/26 02:29:28;;;;;;;2.87;2.67;;;;;;;19.13;82.23;99885.06;4917940;29;20491;-50
2022/08/26 02:31:56;;;;;;;3.43;2.90;;;;;;;19.17;82.30;99884.75;4918240;29;20455;-48
2022/08/26 02:34:29;;;;;;;2.87;2.67;;;;;;;19.19;82.55;99890.91;4917923;29;20998;-50
2022/08/26 02:36:58;;;;;;;3.87;3.50;;;;;;;19.26;81.93;99893.16;4913836;29;20462;-49
2022/08/26 02:39:26;;;;;;;2.77;2.63;;;;;;;19.33;81.87;99880.97;4917007;29;20472;-49
2022/08/26 02:41:53;;;;;;;5.47;2.67;;;;;;;19.19;82.15;99888.22;4917950;29;20544;-49
2022/08/26 02:44:20;;;;;;;9.10;2.20;;;;;;;19.14;82.64;99889.50;4918150;29;20457;-49
2022/08/26 02:46:47;;;;;;;5.83;3.40;;;;;;;19.13;82.47;99885.94;4917095;29;20451;-50
2022/08/26 02:49:15;;;;;;;11.53;2.40;;;;;;;19.21;81.91;99888.97;4904123;29;20487;-51
2022/08/26 02:51:42;;;;;;;2.13;2.03;;;;;;;19.20;82.19;99892.63;4917987;29;20453;-50
2022/08/26 02:54:09;;;;;;;3.70;3.20;;;;;;;19.14;82.47;99882.25;4918282;29;20505;-50
2022/08/26 02:56:36;;;;;;;2.73;2.10;;;;;;;19.15;82.45;99886.69;4917677;29;20843;-50
2022/08/26 02:59:03;;;;;;;7.77;2.90;;;;;;;19.09;82.67;99883.56;4917926;29;20477;-50
2022/08/26 03:01:33;;;;;;;4.27;3.87;;;;;;;19.21;82.61;99890.78;4917614;29;21026;-50
2022/08/26 03:04:01;;;;;;;4.13;3.83;;;;;;;18.96;83.33;99888.97;4917702;29;20459;-50
2022/08/26 03:06:28;;;;;;;5.73;3.20;;;;;;;19.04;83.38;99893.78;4917395;29;20450;-50
2022/08/26 03:08:55;;;;;;;3.20;3.00;;;;;;;19.11;82.95;99887.88;4917394;29;20990;-50
2022/08/26 03:11:22;;;;;;;2.40;2.20;;;;;;;18.89;83.41;99888.50;4919250;29;20456;-50
2022/08/26 03:13:50;;;;;;;2.50;2.30;;;;;;;19.00;83.29;99879.69;4917746;29;20460;-50
2022/08/26 03:16:17;;;;;;;3.40;2.73;;;;;;;18.97;82.90;99879.03;4917272;29;21033;-50
2022/08/26 03:18:44;;;;;;;2.80;2.60;;;;;;;19.08;82.95;99888.09;4917227;29;20492;-50
2022/08/26 03:21:18;;;;;;;3.73;3.27;;;;;;;19.17;82.66;99892.81;4917264;29;20952;-50
2022/08/26 03:23:45;;;;;;;4.13;3.17;;;;;;;18.88;84.08;99884.09;4917104;29;20461;-50
2022/08/26 03:26:13;;;;;;;2.47;2.37;;;;;;;18.75;84.03;99891.28;4917291;29;20457;-50
2022/08/26 03:30:38;;;;;;;3.37;3.07;;;;;;;18.73;84.33;99889.69;4917306;29;20472;-49
2022/08/26 03:31:28;;;;;;;3.30;2.80;;;;;;;18.76;84.55;99889.47;4917187;29;20511;-49
2022/08/26 03:33:55;;;;;;;3.60;3.33;;;;;;;18.73;85.36;99889.69;4917032;29;20457;-50
2022/08/26 03:36:26;;;;;;;2.83;2.63;;;;;;;18.79;85.07;99886.56;4917301;29;20453;-50
2022/08/26 03:38:52;;;;;;;3.60;3.30;;;;;;;18.74;85.17;99884.19;4916905;29;20796;-49
2022/08/26 03:41:20;;;;;;;2.80;2.60;;;;;;;18.70;85.88;99882.69;4947454;29;20495;-49
2022/08/26 03:43:49;;;;;;;6.73;3.13;;;;;;;18.89;85.04;99882.25;4916906;29;20829;-50
2022/08/26 03:46:17;;;;;;;2.80;2.57;;;;;;;18.87;85.01;99889.59;4917000;29;20512;-50
2022/08/26 03:48:44;;;;;;;6.13;3.80;;;;;;;18.89;85.29;99887.63;4916550;29;20568;-51
2022/08/26 03:51:13;;;;;;;3.00;2.67;;;;;;;19.14;84.00;99884.97;4916848;29;20986;-50
2022/08/26 03:53:44;;;;;;;6.77;3.60;;;;;;;19.15;83.96;99888.53;4916662;29;20962;-50
2022/08/26 03:56:10;;;;;;;8.50;3.87;;;;;;;19.01;84.10;99891.31;4916770;29;20875;-50
2022/08/26 03:58:37;;;;;;;3.23;2.43;;;;;;;18.91;85.17;99896.47;4916169;29;20477;-50
2022/08/26 04:01:08;;;;;;;3.40;3.10;;;;;;;18.76;86.59;99897.53;4916605;29;20955;-51
2022/08/26 04:06:19;;;;;;;1.60;1.50;;;;;;;18.58;85.38;99899.63;4916502;29;20467;-51
2022/08/26 04:08:47;;;;;;;2.83;2.17;;;;;;;18.69;85.87;99896.25;4903988;29;20537;-50
2022/08/26 04:11:21;;;;;;;3.00;2.17;;;;;;;18.54;85.99;99898.13;4916536;29;20855;-50
2022/08/26 04:13:49;;;;;;;3.20;3.00;;;;;;;18.54;86.19;99893.59;4916417;29;20460;-49
2022/08/26 04:16:16;;;;;;;5.40;3.30;;;;;;;18.71;85.59;99897.00;4916267;29;21010;-49
2022/08/26 04:18:43;;;;;;;2.40;2.20;;;;;;;18.77;85.40;99899.25;4916498;29;20480;-50
2022/08/26 04:21:13;;;;;;;5.80;2.63;;;;;;;18.77;85.32;99897.44;4916274;29;20963;-50
2022/08/26 04:23:43;;;;;;;2.30;2.20;;;;;;;18.65;85.85;99884.84;4946039;29;20453;-49
2022/08/26 04:26:13;;;;;;;5.63;3.80;;;;;;;18.75;85.45;99890.44;4916142;29;20460;-50
2022/08/26 04:28:40;;;;;;;3.43;2.60;;;;;;;18.77;85.24;99885.78;4916357;29;20513;-50
2022/08/26 04:31:11;;;;;;;2.10;2.00;;;;;;;18.55;85.83;99889.94;4916879;29;20963;-51
2022/08/26 04:33:37;;;;;;;3.80;2.77;;;;;;;19.40;81.64;99887.66;4916609;29;20453;-50
2022/08/26 04:36:08;;;;;;;2.43;2.23;;;;;;;18.80;84.25;99882.91;4916047;29;20564;-50
2022/08/26 04:38:35;;;;;;;3.73;2.63;;;;;;;18.75;84.75;99885.03;4916016;29;20476;-50
2022/08/26 04:41:04;;;;;;;5.03;2.67;;;;;;;18.68;84.46;99887.31;4916109;29;20951;-49
2022/08/26 04:43:40;;;;;;;3.60;2.63;;;;;;;18.49;85.17;99889.47;4916167;29;20448;-50
2022/08/26 04:46:08;;;;;;;6.50;3.60;;;;;;;18.72;84.75;99898.72;4916105;29;20452;-51
2022/08/26 04:48:39;;;;;;;4.63;3.10;;;;;;;18.69;84.92;99904.31;4916061;29;20473;-49
2022/08/26 04:51:06;;;;;;;3.37;3.07;;;;;;;18.70;85.05;99903.34;4915996;29;20457;-50
2022/08/26 04:53:33;;;;;;;3.07;2.87;;;;;;;18.75;84.80;99903.88;4916173;29;20532;-49
2022/08/26 04:56:00;;;;;;;9.80;3.43;;;;;;;18.54;85.56;99900.81;4916050;29;20543;-50
2022/08/26 04:58:29;;;;;;;3.23;3.03;;;;;;;18.49;86.12;99905.63;4915864;29;20548;-49
2022/08/26 05:00:57;;;;;;;9.03;3.33;;;;;;;18.48;85.78;99903.91;4916329;29;20971;-50
2022/08/26 05:03:25;;;;;;;3.20;3.00;;;;;;;18.51;85.74;99901.88;4916123;29;20493;-50
2022/08/26 05:05:53;;;;;;;2.47;2.37;;;;;;;18.60;85.83;99911.16;4915741;29;20449;-50
2022/08/26 05:08:21;;;;;;;3.63;3.37;;;;;;;18.50;86.27;99910.94;4915926;29;20465;-50
2022/08/26 05:10:53;;;;;;;2.57;2.23;;;;;;;18.37;87.29;99906.47;4918001;29;20453;-50
2022/08/26 05:13:19;;;;;;;2.90;2.70;;;;;;;18.62;86.30;99917.28;4917559;29;20457;-50
2022/08/26 05:15:47;;;;;;;3.20;2.37;;;;;;;18.86;85.32;99910.28;4919529;29;20497;-50
2022/08/26 05:18:16;;;;;;;5.80;3.20;;;;;;;19.01;84.63;99910.19;4919229;29;20971;-49
2022/08/26 05:20:49;;;;;;;3.40;3.10;;;;;;;19.06;84.54;99916.13;4919429;29;21003;-49
2022/08/26 05:23:16;;;;;;;1.90;1.80;;;;;;;19.23;83.68;99918.50;4918395;29;20464;-50
2022/08/26 05:25:45;;;;;;;7.67;2.97;;;;;;;19.55;83.06;99916.22;4919299;29;20819;-50
2022/08/26 05:28:15;;;;;;;5.43;1.93;;;;;;;19.62;82.41;99928.31;4919310;29;20459;-50
2022/08/26 05:30:43;;;;;;;4.27;3.80;;;;;;;20.11;80.40;99927.44;4918968;29;20475;-49
2022/08/26 05:33:10;;;;;;;18.17;2.50;;;;;;;20.06;80.65;99933.16;4919475;29;20832;-50
2022/08/26 05:35:38;;;;;;;2.50;2.30;;;;;;;20.16;80.26;99929.81;4919294;29;20535;-50
2022/08/26 05:38:07;;;;;;;4.93;3.67;;;;;;;20.24;79.74;99930.94;4919471;29;20453;-50
2022/08/26 05:40:43;;;;;;;7.20;2.67;;;;;;;20.89;77.42;99925.13;4919185;29;20453;-50
2022/08/26 05:43:10;;;;;;;3.93;3.63;;;;;;;21.06;76.49;99922.94;4919066;29;20452;-50
2022/08/26 05:45:40;;;;;;;14.20;2.83;;;;;;;21.32;75.27;99932.63;4919194;29;20878;-49
2022/08/26 05:48:13;;;;;;;3.00;2.80;;;;;;;21.44;74.69;99931.66;4918945;29;20456;-50
2022/08/26 05:50:42;;;;;;;7.30;2.47;;;;;;;21.76;73.40;99939.03;4918770;29;20820;-50
2022/08/26 05:53:10;;;;;;;2.67;1.83;;;;;;;21.81;73.52;99932.28;4918972;29;20943;-50
2022/08/26 05:55:44;;;;;;;6.50;4.07;;;;;;;21.89;73.13;99932.50;4918724;29;20503;-50
2022/08/26 05:58:11;;;;;;;4.07;3.77;;;;;;;22.02;72.72;99940.47;4919180;29;20457;-50
2022/08/26 06:00:39;;;;;;;28.67;3.63;;;;;;;21.96;73.47;99934.72;4918915;29;20456;-50
2022/08/26 06:03:07;;;;;;;4.20;3.70;;;;;;;21.93;74.03;99933.13;4918692;29;20522;-50
2022/08/26 06:05:38;;;;;;;8.37;3.20;;;;;;;21.81;74.34;99934.97;4918539;29;20445;-50
2022/08/26 06:08:12;;;;;;;6.83;4.97;;;;;;;22.04;74.60;99927.69;4918466;29;20939;-50
2022/08/26 06:11:00;;;;;;;6.67;5.00;;;;;;;22.23;79.03;99924.38;4918983;29;20461;-50
2022/08/26 06:13:28;;;;;;;10.47;8.93;;;;;;;22.80;80.28;99928.59;4919712;29;20802;-50
2022/08/26 06:15:58;;;;;;;18.07;8.40;;;;;;;23.07;79.84;99925.38;4918512;29;20493;-50
2022/08/26 06:18:33;;;;;;;8.90;8.10;;;;;;;22.93;79.81;99921.16;4918345;29;20461;-50
2022/08/26 06:21:20;;;;;;;15.20;10.90;;;;;;;23.58;76.85;99924.59;4918455;29;20463;-50
2022/08/26 06:26:35;;;;;;;8.73;7.97;;;;;;;23.43;77.93;99925.88;4918283;29;20441;-50
2022/08/26 06:29:04;;;;;;;9.83;6.77;;;;;;;23.41;77.82;99926.00;4918129;29;20481;-51
2022/08/26 06:31:32;;;;;;;11.87;8.70;;;;;;;23.78;77.25;99930.94;4906497;29;20453;-51
2022/08/26 06:34:00;;;;;;;12.80;8.90;;;;;;;23.91;77.01;99926.13;4918250;29;20457;-51
2022/08/26 06:36:29;;;;;;;8.57;7.77;;;;;;;23.74;77.99;99930.34;4918210;29;20564;-51
2022/08/26 06:38:59;;;;;;;10.63;7.67;;;;;;;24.06;77.02;99934.75;4918092;29;20473;-50
2022/08/26 06:41:26;;;;;;;10.50;9.60;;;;;;;24.28;76.90;99936.38;4918599;29;20457;-52
2022/08/26 06:43:52;;;;;;;18.30;10.80;;;;;;;24.26;77.96;99936.53;4918903;29;20453;-51
2022/08/26 06:46:20;;;;;;;14.60;12.23;;;;;;;24.32;78.57;99935.13;4917047;29;20472;-50
2022/08/26 06:48:47;;;;;;;25.47;12.83;;;;;;;24.45;77.48;99944.72;4917962;29;20505;-51
2022/08/26 06:51:16;;;;;;;15.13;12.83;;;;;;;24.46;77.97;99935.56;4918057;29;20457;-51
2022/08/26 06:53:45;;;;;;;17.40;12.63;;;;;;;24.26;78.64;99939.25;4917876;29;20836;-50
2022/08/26 06:56:17;;;;;;;33.57;12.60;;;;;;;24.09;79.23;99940.75;4918106;29;20894;-51
2022/08/26 06:58:44;;;;;;;11.70;10.63;;;;;;;24.33;78.89;99940.41;4917618;29;20535;-51
2022/08/26 07:01:23;;;;;;;17.37;12.27;;;;;;;24.52;77.74;99940.44;4917824;29;20829;-51
2022/08/26 07:03:51;;;;;;;13.63;10.93;;;;;;;24.40;78.40;99936.16;4919751;29;20456;-51
2022/08/26 07:06:20;;;;;;;28.67;11.93;;;;;;;24.43;78.50;99932.28;4917500;29;20451;-51
2022/08/26 07:08:52;;;;;;;29.50;12.50;;;;;;;24.56;78.06;99932.03;4917353;29;20509;-50
2022/08/26 07:11:19;;;;;;;20.20;12.17;;;;;;;24.50;78.31;99933.44;4919766;29;20548;-51
2022/08/26 07:13:46;;;;;;;11.97;10.90;;;;;;;24.51;77.93;99938.72;4917684;29;20963;-51
2022/08/26 07:16:16;;;;;;;18.50;13.10;;;;;;;24.79;77.31;99930.72;4917455;29;20953;-51
2022/08/26 07:18:44;;;;;;;26.90;11.70;;;;;;;24.73;77.40;99940.31;4917415;29;20473;-51
2022/08/26 07:21:14;;;;;;;17.53;13.27;;;;;;;24.90;76.82;99943.31;4917171;29;20485;-51
2022/08/26 07:23:41;;;;;;;26.67;13.97;;;;;;;25.14;75.48;99943.75;4917540;29;20569;-50
2022/08/26 07:26:10;;;;;;;18.60;11.43;;;;;;;25.17;75.56;99939.88;4917625;29;20870;-51
2022/08/26 07:28:37;;;;;;;18.23;13.20;;;;;;;25.31;74.74;99940.28;4917444;29;20842;-51
2022/08/26 07:31:05;;;;;;;11.73;10.63;;;;;;;25.38;74.65;99932.41;4917452;29;20465;-51
2022/08/26 07:33:37;;;;;;;23.00;13.23;;;;;;;25.09;75.56;99946.06;4916531;29;20464;-51
2022/08/26 07:36:06;;;;;;;36.33;14.00;;;;;;;25.46;73.99;99945.25;4916803;29;21077;-52
2022/08/26 07:38:34;;;;;;;15.37;11.40;;;;;;;25.49;73.50;99943.09;4916858;29;21066;-51
2022/08/26 07:41:01;;;;;;;19.40;11.33;;;;;;;25.64;73.33;99938.91;4916856;29;20971;-51
2022/08/26 07:43:29;;;;;;;13.00;11.37;;;;;;;25.83;72.82;99945.31;4917130;29;20548;-51
2022/08/26 07:45:56;;;;;;;25.47;10.63;;;;;;;25.62;72.25;99937.31;4916797;29;20939;-51
2022/08/26 07:48:22;;;;;;;9.80;8.87;;;;;;;25.68;71.97;99943.06;4916874;29;20461;-51
2022/08/26 07:50:51;;;;;;;20.53;9.77;;;;;;;25.86;72.40;99945.00;4916891;29;20456;-51
2022/08/26 07:53:20;;;;;;;41.50;10.07;;;;;;;25.87;72.78;99946.72;4916935;29;20508;-51
2022/08/26 07:55:47;;;;;;;37.83;12.30;;;;;;;25.97;71.58;99942.94;4916756;29;20504;-53
2022/08/26 07:58:14;;;;;;;22.77;11.10;;;;;;;26.31;71.00;99945.03;4916727;29;20453;-53
2022/08/26 08:00:41;;;;;;;17.67;12.40;;;;;;;26.06;72.19;99946.63;4916530;29;20467;-51
2022/08/26 08:03:09;;;;;;;16.20;12.00;;;;;;;26.07;71.74;99942.91;4916853;29;20480;-51
2022/08/26 08:05:36;;;;;;;12.37;11.07;;;;;;;26.27;71.18;99943.63;4916585;29;20500;-51
2022/08/26 08:08:08;;;;;;;19.40;11.57;;;;;;;26.36;71.06;99944.63;4916549;29;20460;-52
2022/08/26 08:10:54;;;;;;;15.47;11.47;;;;;;;26.45;70.54;99946.41;4916650;29;20453;-50
2022/08/26 08:13:21;;;;;;;19.87;13.53;;;;;;;26.47;70.45;99947.16;4918328;29;20453;-51
2022/08/26 08:15:49;;;;;;;21.20;11.67;;;;;;;26.12;71.61;99946.03;4916409;29;21006;-51
2022/08/26 08:18:16;;;;;;;25.13;11.87;;;;;;;26.45;70.60;99941.84;4916388;29;20463;-51
2022/08/26 08:20:46;;;;;;;14.73;12.13;;;;;;;26.63;69.82;99944.59;4916365;29;20457;-51
2022/08/26 08:23:31;;;;;;;19.00;11.20;;;;;;;26.78;69.22;99939.44;4916422;29;20457;-52
2022/08/26 08:26:03;;;;;;;23.60;13.13;;;;;;;26.86;69.46;99945.84;4916280;29;20460;-51
2022/08/26 08:28:29;;;;;;;19.47;12.43;;;;;;;27.08;68.60;99940.91;4916455;29;20453;-51
2022/08/26 08:30:56;;;;;;;13.80;12.40;;;;;;;26.87;68.44;99946.69;4916042;29;20469;-51
2022/08/26 08:33:23;;;;;;;18.77;11.07;;;;;;;26.77;69.72;99954.09;4916241;29;20822;-51
2022/08/26 08:35:49;;;;;;;14.33;11.10;;;;;;;26.82;68.73;99947.13;4915956;29;20501;-51
2022/08/26 08:38:16;;;;;;;21.27;11.30;;;;;;;27.08;68.36;99946.38;4915951;29;20958;-51
2022/08/26 08:40:44;;;;;;;26.47;11.20;;;;;;;26.81;68.59;99948.16;4916184;29;20457;-51
2022/08/26 08:43:13;;;;;;;21.67;12.13;;;;;;;26.84;68.79;99938.78;4916373;29;20463;-51
2022/08/26 08:45:49;;;;;;;17.00;12.97;;;;;;;27.08;67.79;99939.03;4915028;29;21014;-51
2022/08/26 08:48:30;;;;;;;14.63;11.70;;;;;;;27.05;68.21;99943.97;4915988;29;20453;-51
2022/08/26 08:51:07;;;;;;;15.00;10.67;;;;;;;27.11;67.62;99943.31;4915948;29;20463;-51
2022/08/26 08:53:41;;;;;;;12.37;11.10;;;;;;;27.44;66.87;99938.97;4916898;29;20464;-51
2022/08/26 08:56:22;;;;;;;12.70;11.30;;;;;;;27.40;67.08;99943.00;4916525;29;20528;-51
2022/08/26 08:59:13;;;;;;;17.13;11.67;;;;;;;27.24;66.03;99941.03;4915858;29;20497;-51
2022/08/26 09:02:12;;;;;;;24.83;11.63;;;;;;;27.57;65.94;99938.53;4915968;29;20829;-51
2022/08/26 09:05:01;;;;;;;14.03;9.87;;;;;;;27.63;65.45;99938.72;4915750;29;20453;-51
2022/08/26 09:07:46;;;;;;;18.50;11.87;;;;;;;27.64;65.43;99945.09;4927105;29;20870;-51
2022/08/26 09:10:49;;;;;;;22.17;12.93;;;;;;;27.78;65.15;99944.47;4915135;29;20790;-53
2022/08/26 09:13:19;;;;;;;12.23;10.57;;;;;;;27.85;64.89;99945.56;4915615;29;20966;-53
2022/08/26 09:15:58;;;;;;;16.27;11.63;;;;;;;27.48;65.82;99942.22;4915637;29;20993;-53
2022/08/26 09:18:46;;;;;;;17.90;13.00;;;;;;;27.41;65.96;99942.00;4915768;29;20461;-53
2022/08/26 09:21:15;;;;;;;19.10;8.60;;;;;;;27.93;64.98;99940.13;4915795;29;20457;-54
2022/08/26 09:23:44;;;;;;;18.03;12.20;;;;;;;28.12;64.06;99938.16;4916201;29;20507;-52
2022/08/26 09:26:38;;;;;;;13.90;10.83;;;;;;;28.10;64.26;99938.31;4915505;29;20942;-52
2022/08/26 09:29:12;;;;;;;15.10;11.10;;;;;;;28.33;63.31;99935.84;4907905;29;20487;-53
2022/08/26 09:31:40;;;;;;;17.70;11.97;;;;;;;28.54;62.93;99932.66;4915699;29;20452;-52
2022/08/26 09:34:15;;;;;;;16.40;11.67;;;;;;;28.16;63.93;99928.59;4915619;29;20453;-52
2022/08/26 09:36:47;;;;;;;12.03;11.03;;;;;;;28.74;62.13;99934.06;4915468;29;20522;-52
2022/08/26 09:39:22;;;;;;;14.53;12.23;;;;;;;28.55;62.96;99929.75;4915572;29;20568;-52
2022/08/26 09:42:06;;;;;;;14.30;11.40;;;;;;;28.78;62.34;99927.25;4915503;29;20462;-53
2022/08/26 09:44:55;;;;;;;16.40;13.23;;;;;;;28.80;61.74;99924.31;4904335;29;20833;-52
2022/08/26 09:47:28;;;;;;;14.50;10.40;;;;;;;29.04;60.96;99921.59;4915735;29;20539;-53
2022/08/26 09:50:04;;;;;;;12.60;11.47;;;;;;;29.16;61.13;99919.38;4915396;29;20508;-53
2022/08/26 09:52:37;;;;;;;22.03;12.30;;;;;;;29.30;59.57;99909.59;4903303;29;20516;-53
2022/08/26 09:55:21;;;;;;;11.30;10.37;;;;;;;29.36;59.29;99909.78;4915417;29;20807;-53
2022/08/26 09:57:51;;;;;;;11.73;10.10;;;;;;;29.28;60.30;99919.88;4918847;29;20492;-54
2022/08/26 10:00:38;;;;;;;13.53;11.30;;;;;;;29.40;59.14;99902.91;4918845;29;20480;-53
2022/08/26 10:03:09;;;;;;;16.93;10.97;;;;;;;29.20;59.63;99907.06;4918920;29;20449;-53
2022/08/26 10:05:40;;;;;;;16.53;10.63;;;;;;;29.47;58.40;99897.63;4918539;29;20481;-53
2022/08/26 10:08:32;;;;;;;24.07;12.50;;;;;;;29.67;58.09;99898.06;4918509;29;21006;-54
2022/08/26 10:11:03;;;;;;;14.97;11.50;;;;;;;29.46;58.16;99888.53;4919248;29;20943;-52
2022/08/26 10:13:30;;;;;;;12.87;11.53;;;;;;;29.60;59.04;99888.84;4919438;29;20485;-52
2022/08/26 10:16:07;;;;;;;13.80;10.13;;;;;;;29.89;57.87;99886.34;4918482;29;20459;-53
2022/08/26 10:18:41;;;;;;;20.47;10.90;;;;;;;30.02;57.25;99888.53;4918680;29;20901;-53
2022/08/26 10:21:14;;;;;;;21.73;8.40;;;;;;;30.03;55.50;99890.22;4918395;29;20536;-53
2022/08/26 10:23:50;;;;;;;10.70;9.80;;;;;;;30.22;55.95;99880.72;4918506;29;20449;-52
2022/08/26 10:26:25;;;;;;;13.93;10.90;;;;;;;30.31;56.03;99876.91;4918351;29;20453;-54
2022/08/26 10:29:07;;;;;;;15.53;12.27;;;;;;;29.84;56.50;99875.06;4918344;29;20488;-53
2022/08/26 10:31:43;;;;;;;12.10;10.97;;;;;;;30.08;56.32;99872.22;4907411;29;20464;-53
2022/08/26 10:34:11;;;;;;;15.30;9.63;;;;;;;30.34;55.38;99868.31;4918607;29;20485;-52
2022/08/26 10:36:49;;;;;;;12.77;10.60;;;;;;;30.20;56.11;99874.56;4918110;29;20522;-53
2022/08/26 10:39:44;;;;;;;13.47;10.40;;;;;;;29.95;56.08;99868.31;4906281;29;20555;-53
2022/08/26 10:42:31;;;;;;;20.20;11.50;;;;;;;30.03;56.19;99860.94;4918145;29;20450;-53
2022/08/26 10:45:10;;;;;;;14.40;10.90;;;;;;;30.10;56.17;99869.31;4918117;29;20456;-53
2022/08/26 10:47:52;;;;;;;14.17;9.40;;;;;;;30.55;54.25;99862.13;4906323;29;20448;-53
2022/08/26 10:50:23;;;;;;;11.07;8.57;;;;;;;30.62;53.51;99858.53;4917990;29;20472;-52
2022/08/26 10:53:04;;;;;;;14.17;9.67;;;;;;;30.62;53.75;99855.78;4918037;29;20453;-52
2022/08/26 10:55:47;;;;;;;18.13;13.37;;;;;;;30.37;54.47;99855.06;4917748;29;20449;-52
2022/08/26 10:58:26;;;;;;;15.07;9.90;;;;;;;30.23;54.30;99847.63;4917717;29;20497;-52
2022/08/26 11:04:15;;;;;;;12.13;10.30;;;;;;;30.66;53.55;99851.63;4906580;29;20464;-53
2022/08/26 11:06:44;;;;;;;14.00;10.40;;;;;;;31.00;52.86;99838.47;4917924;29;20471;-53
2022/08/26 11:09:43;;;;;;;16.10;11.97;;;;;;;30.91;52.84;99840.44;4916823;29;20481;-53
2022/08/26 11:12:40;;;;;;;19.80;11.50;;;;;;;31.12;52.25;99839.72;4910893;29;20464;-53
2022/08/26 11:15:35;;;;;;;13.67;10.50;;;;;;;31.31;51.85;99839.19;4905498;29;20549;-53
2022/08/26 11:18:08;;;;;;;13.90;12.30;;;;;;;30.92;52.32;99831.16;4947586;29;20579;-53
2022/08/26 11:20:39;;;;;;;12.87;11.50;;;;;;;31.23;51.95;99831.03;4917227;29;20477;-53
2022/08/26 11:23:19;;;;;;;22.33;10.13;;;;;;;31.56;50.36;99822.44;4917320;29;20449;-53
2022/08/26 11:25:55;;;;;;;13.93;11.53;;;;;;;31.49;50.82;99825.06;4917386;29;20540;-53
2022/08/26 11:28:33;;;;;;;15.80;12.53;;;;;;;31.63;50.20;99831.59;4905715;29;20495;-53
2022/08/26 11:31:00;;;;;;;15.33;11.70;;;;;;;31.53;50.38;99816.28;4917129;29;20467;-53
2022/08/26 11:33:42;;;;;;;16.20;10.90;;;;;;;30.98;51.32;99818.56;4916291;29;20528;-54
2022/08/26 11:36:24;;;;;;;16.77;11.43;;;;;;;30.91;52.35;99819.31;4917072;29;20438;-53
2022/08/26 11:38:53;;;;;;;25.50;11.50;;;;;;;30.86;52.26;99819.03;4916985;29;20468;-53
2022/08/26 11:41:21;;;;;;;13.53;11.67;;;;;;;30.72;52.54;99819.84;4917016;29;20427;-54
2022/08/26 11:43:51;;;;;;;20.27;12.47;;;;;;;30.67;52.88;99825.88;4916777;29;20468;-53
2022/08/26 11:46:27;;;;;;;11.57;10.47;;;;;;;31.18;52.09;99811.50;4917032;29;20446;-53
2022/08/26 11:49:04;;;;;;;22.70;13.47;;;;;;;30.86;52.34;99808.06;4916787;29;20552;-53
2022/08/26 11:51:33;;;;;;;17.30;10.90;;;;;;;31.17;51.32;99807.91;4916770;29;20496;-53
2022/08/26 11:54:17;;;;;;;10.23;9.47;;;;;;;31.26;50.83;99805.97;4916628;29;20825;-53
2022/08/26 11:57:03;;;;;;;13.07;11.17;;;;;;;31.54;50.47;99801.47;4916627;29;20874;-53